sensor_id;sensor_type;location;lat;lon;timestamp;temperature;humidity
34406;DHT22;20658;45.630;8.886;2023-12-22T00:00:19;4.00;99.90
34406;DHT22;20658;45.630;8.886;2023-12-22T00:02:53;4.60;99.90
34406;DHT22;20658;45.630;8.886;2023-12-22T00:05:26;4.70;99.90
34406;DHT22;20658;45.630;8.886;2023-12-22T00:07:59;4.70;99.90
34406;DHT22;20658;45.630;8.886;2023-12-22T00:10:34;4.80;99.90
34406;DHT22;20658;45.630;8.886;2023-12-22T00:13:07;5.00;99.90
34406;DHT22;20658;45.630;8.886;2023-12-22T00:15:35;5.10;99.90
34406;DHT22;20658;45.630;8.886;2023-12-22T00:18:09;5.00;99.90
34406;DHT22;20658;45.630;8.886;2023-12-22T00:20:43;5.00;99.90
34406;DHT22;20658;45.630;8.886;2023-12-22T00:23:16;4.90;99.90
34406;DHT22;20658;45.630;8.886;2023-12-22T00:25:51;4.90;99.90
34406;DHT22;20658;45.630;8.886;2023-12-22T00:28:24;4.80;99.90
34406;DHT22;20658;45.630;8.886;2023-12-22T00:30:58;5.10;99.90
34406;DHT22;20658;45.630;8.886;2023-12-22T00:33:31;5.00;99.90
34406;DHT22;20658;45.630;8.886;2023-12-22T00:36:04;5.20;99.90
34406;DHT22;20658;45.630;8.886;2023-12-22T00:38:38;5.40;99.90
34406;DHT22;20658;45.630;8.886;2023-12-22T00:41:13;5.60;99.90
34406;DHT22;20658;45.630;8.886;2023-12-22T00:43:41;5.80;99.90
34406;DHT22;20658;45.630;8.886;2023-12-22T00:46:14;6.00;99.90
34406;DHT22;20658;45.630;8.886;2023-12-22T00:48:48;6.10;99.90
34406;DHT22;20658;45.630;8.886;2023-12-22T00:51:21;6.00;99.90
34406;DHT22;20658;45.630;8.886;2023-12-22T00:53:49;6.10;99.90
34406;DHT22;20658;45.630;8.886;2023-12-22T00:56:24;6.10;99.90
34406;DHT22;20658;45.630;8.886;2023-12-22T00:58:57;6.50;99.90
34406;DHT22;20658;45.630;8.886;2023-12-22T01:01:26;6.70;99.90
34406;DHT22;20658;45.630;8.886;2023-12-22T01:03:59;6.90;99.90
34406;DHT22;20658;45.630;8.886;2023-12-22T01:06:37;7.10;99.90
34406;DHT22;20658;45.630;8.886;2023-12-22T01:09:10;7.40;99.90
34406;DHT22;20658;45.630;8.886;2023-12-22T01:11:40;7.50;99.90
34406;DHT22;20658;45.630;8.886;2023-12-22T01:14:14;7.70;99.90
34406;DHT22;20658;45.630;8.886;2023-12-22T01:16:47;8.00;99.90
34406;DHT22;20658;45.630;8.886;2023-12-22T01:19:20;8.10;99.90
34406;DHT22;20658;45.630;8.886;2023-12-22T01:21:54;8.30;99.90
34406;DHT22;20658;45.630;8.886;2023-12-22T01:24:27;8.50;99.20
34406;DHT22;20658;45.630;8.886;2023-12-22T01:26:57;8.80;97.30
34406;DHT22;20658;45.630;8.886;2023-12-22T01:29:31;8.80;96.40
34406;DHT22;20658;45.630;8.886;2023-12-22T01:31:59;8.90;95.60
34406;DHT22;20658;45.630;8.886;2023-12-22T01:34:32;9.10;93.60
34406;DHT22;20658;45.630;8.886;2023-12-22T01:37:06;9.70;90.70
34406;DHT22;20658;45.630;8.886;2023-12-22T01:39:34;9.70;88.70
34406;DHT22;20658;45.630;8.886;2023-12-22T01:42:09;10.10;86.10
34406;DHT22;20658;45.630;8.886;2023-12-22T01:44:42;10.20;85.40
34406;DHT22;20658;45.630;8.886;2023-12-22T01:47:11;10.30;84.30
34406;DHT22;20658;45.630;8.886;2023-12-22T01:49:44;10.40;83.60
34406;DHT22;20658;45.630;8.886;2023-12-22T01:52:18;10.40;83.70
34406;DHT22;20658;45.630;8.886;2023-12-22T01:54:46;10.40;83.50
34406;DHT22;20658;45.630;8.886;2023-12-22T01:57:17;10.30;83.80
34406;DHT22;20658;45.630;8.886;2023-12-22T01:59:51;10.30;83.70
34406;DHT22;20658;45.630;8.886;2023-12-22T02:02:24;10.30;83.70
34406;DHT22;20658;45.630;8.886;2023-12-22T02:04:58;10.20;84.10
34406;DHT22;20658;45.630;8.886;2023-12-22T02:07:32;10.20;84.30
34406;DHT22;20658;45.630;8.886;2023-12-22T02:10:06;10.20;84.60
34406;DHT22;20658;45.630;8.886;2023-12-22T02:12:42;10.10;84.70
34406;DHT22;20658;45.630;8.886;2023-12-22T02:15:34;10.10;85.20
34406;DHT22;20658;45.630;8.886;2023-12-22T02:18:12;9.90;85.80
34406;DHT22;20658;45.630;8.886;2023-12-22T02:20:47;9.80;86.60
34406;DHT22;20658;45.630;8.886;2023-12-22T02:23:22;10.10;87.00
34406;DHT22;20658;45.630;8.886;2023-12-22T02:26:02;9.70;87.40
34406;DHT22;20658;45.630;8.886;2023-12-22T02:28:35;9.60;87.40
34406;DHT22;20658;45.630;8.886;2023-12-22T02:31:12;9.60;87.40
34406;DHT22;20658;45.630;8.886;2023-12-22T02:33:52;9.60;87.50
34406;DHT22;20658;45.630;8.886;2023-12-22T02:36:28;9.50;88.00
34406;DHT22;20658;45.630;8.886;2023-12-22T02:39:04;9.60;87.40
34406;DHT22;20658;45.630;8.886;2023-12-22T02:41:33;9.70;87.00
34406;DHT22;20658;45.630;8.886;2023-12-22T02:44:07;9.70;86.60
34406;DHT22;20658;45.630;8.886;2023-12-22T02:46:40;9.70;86.10
34406;DHT22;20658;45.630;8.886;2023-12-22T02:49:15;9.80;85.00
34406;DHT22;20658;45.630;8.886;2023-12-22T02:51:50;9.90;84.00
34406;DHT22;20658;45.630;8.886;2023-12-22T02:54:25;10.10;82.40
34406;DHT22;20658;45.630;8.886;2023-12-22T02:57:01;10.40;80.60
34406;DHT22;20658;45.630;8.886;2023-12-22T02:59:34;10.60;79.60
34406;DHT22;20658;45.630;8.886;2023-12-22T03:02:09;10.70;79.50
34406;DHT22;20658;45.630;8.886;2023-12-22T03:04:43;10.60;79.30
34406;DHT22;20658;45.630;8.886;2023-12-22T03:07:18;10.60;79.20
34406;DHT22;20658;45.630;8.886;2023-12-22T03:09:52;10.50;79.40
34406;DHT22;20658;45.630;8.886;2023-12-22T03:12:26;10.50;79.20
34406;DHT22;20658;45.630;8.886;2023-12-22T03:14:59;10.60;78.60
34406;DHT22;20658;45.630;8.886;2023-12-22T03:17:32;10.60;78.30
34406;DHT22;20658;45.630;8.886;2023-12-22T03:20:06;10.60;78.10
34406;DHT22;20658;45.630;8.886;2023-12-22T03:22:40;10.70;77.70
34406;DHT22;20658;45.630;8.886;2023-12-22T03:25:15;11.00;77.80
34406;DHT22;20658;45.630;8.886;2023-12-22T03:27:48;10.70;76.90
34406;DHT22;20658;45.630;8.886;2023-12-22T03:30:16;10.80;76.20
34406;DHT22;20658;45.630;8.886;2023-12-22T03:32:50;11.10;76.00
34406;DHT22;20658;45.630;8.886;2023-12-22T03:35:23;10.90;75.80
34406;DHT22;20658;45.630;8.886;2023-12-22T03:37:57;10.90;75.20
34406;DHT22;20658;45.630;8.886;2023-12-22T03:40:31;10.90;75.40
34406;DHT22;20658;45.630;8.886;2023-12-22T03:43:05;10.90;74.60
34406;DHT22;20658;45.630;8.886;2023-12-22T03:45:34;11.00;74.00
34406;DHT22;20658;45.630;8.886;2023-12-22T03:48:07;11.00;73.40
34406;DHT22;20658;45.630;8.886;2023-12-22T03:50:40;11.10;73.20
34406;DHT22;20658;45.630;8.886;2023-12-22T03:53:09;11.10;73.10
34406;DHT22;20658;45.630;8.886;2023-12-22T03:55:43;11.10;72.80
34406;DHT22;20658;45.630;8.886;2023-12-22T03:58:17;11.00;73.00
34406;DHT22;20658;45.630;8.886;2023-12-22T04:00:50;11.00;72.60
34406;DHT22;20658;45.630;8.886;2023-12-22T04:03:23;11.30;71.80
34406;DHT22;20658;45.630;8.886;2023-12-22T04:05:56;11.20;71.10
34406;DHT22;20658;45.630;8.886;2023-12-22T04:08:30;11.30;70.70
34406;DHT22;20658;45.630;8.886;2023-12-22T04:11:04;11.30;69.90
34406;DHT22;20658;45.630;8.886;2023-12-22T04:13:38;11.40;69.10
34406;DHT22;20658;45.630;8.886;2023-12-22T04:16:11;11.50;68.80
34406;DHT22;20658;45.630;8.886;2023-12-22T04:18:44;11.50;68.90
34406;DHT22;20658;45.630;8.886;2023-12-22T04:21:18;11.50;69.00
34406;DHT22;20658;45.630;8.886;2023-12-22T04:23:51;11.50;68.70
34406;DHT22;20658;45.630;8.886;2023-12-22T04:26:26;11.60;68.30
34406;DHT22;20658;45.630;8.886;2023-12-22T04:28:59;11.60;68.10
34406;DHT22;20658;45.630;8.886;2023-12-22T04:31:33;11.70;67.60
34406;DHT22;20658;45.630;8.886;2023-12-22T04:34:06;11.70;67.30
34406;DHT22;20658;45.630;8.886;2023-12-22T04:36:39;11.80;66.30
34406;DHT22;20658;45.630;8.886;2023-12-22T04:39:08;11.80;66.20
34406;DHT22;20658;45.630;8.886;2023-12-22T04:41:42;12.10;66.70
34406;DHT22;20658;45.630;8.886;2023-12-22T04:44:16;11.80;66.70
34406;DHT22;20658;45.630;8.886;2023-12-22T04:46:44;11.70;66.40
34406;DHT22;20658;45.630;8.886;2023-12-22T04:49:17;11.80;66.30
34406;DHT22;20658;45.630;8.886;2023-12-22T04:51:51;11.70;66.50
34406;DHT22;20658;45.630;8.886;2023-12-22T04:54:24;11.80;66.40
34406;DHT22;20658;45.630;8.886;2023-12-22T04:56:59;11.80;65.50
34406;DHT22;20658;45.630;8.886;2023-12-22T04:59:27;11.80;65.30
34406;DHT22;20658;45.630;8.886;2023-12-22T05:02:01;11.90;64.60
34406;DHT22;20658;45.630;8.886;2023-12-22T05:04:34;12.00;63.80
34406;DHT22;20658;45.630;8.886;2023-12-22T05:07:08;12.10;63.70
34406;DHT22;20658;45.630;8.886;2023-12-22T05:09:42;12.00;63.80
34406;DHT22;20658;45.630;8.886;2023-12-22T05:12:17;11.90;63.70
34406;DHT22;20658;45.630;8.886;2023-12-22T05:14:51;11.90;63.10
34406;DHT22;20658;45.630;8.886;2023-12-22T05:17:19;12.00;62.70
34406;DHT22;20658;45.630;8.886;2023-12-22T05:19:48;11.90;62.40
34406;DHT22;20658;45.630;8.886;2023-12-22T05:22:21;12.00;62.30
34406;DHT22;20658;45.630;8.886;2023-12-22T05:24:54;12.10;60.80
34406;DHT22;20658;45.630;8.886;2023-12-22T05:27:29;12.10;61.00
34406;DHT22;20658;45.630;8.886;2023-12-22T05:30:03;12.10;61.00
34406;DHT22;20658;45.630;8.886;2023-12-22T05:32:32;12.30;60.60
34406;DHT22;20658;45.630;8.886;2023-12-22T05:35:06;12.10;60.50
34406;DHT22;20658;45.630;8.886;2023-12-22T05:37:40;12.20;59.70
34406;DHT22;20658;45.630;8.886;2023-12-22T05:40:13;11.80;62.00
34406;DHT22;20658;45.630;8.886;2023-12-22T05:42:48;11.60;62.80
34406;DHT22;20658;45.630;8.886;2023-12-22T05:45:21;11.50;64.10
34406;DHT22;20658;45.630;8.886;2023-12-22T05:47:56;11.20;63.20
34406;DHT22;20658;45.630;8.886;2023-12-22T05:50:30;11.00;64.10
34406;DHT22;20658;45.630;8.886;2023-12-22T05:53:03;10.90;65.00
34406;DHT22;20658;45.630;8.886;2023-12-22T05:55:32;10.70;65.20
34406;DHT22;20658;45.630;8.886;2023-12-22T05:58:06;10.60;65.50
34406;DHT22;20658;45.630;8.886;2023-12-22T06:00:40;10.50;66.00
34406;DHT22;20658;45.630;8.886;2023-12-22T06:03:13;10.60;64.20
34406;DHT22;20658;45.630;8.886;2023-12-22T06:05:42;10.80;62.30
34406;DHT22;20658;45.630;8.886;2023-12-22T06:08:15;10.80;62.10
34406;DHT22;20658;45.630;8.886;2023-12-22T06:10:48;10.80;61.50
34406;DHT22;20658;45.630;8.886;2023-12-22T06:13:18;11.00;57.50
34406;DHT22;20658;45.630;8.886;2023-12-22T06:15:51;11.20;57.50
34406;DHT22;20658;45.630;8.886;2023-12-22T06:18:24;11.70;53.70
34406;DHT22;20658;45.630;8.886;2023-12-22T06:20:58;12.00;53.20
34406;DHT22;20658;45.630;8.886;2023-12-22T06:23:31;13.10;48.20
34406;DHT22;20658;45.630;8.886;2023-12-22T06:26:08;13.10;49.10
34406;DHT22;20658;45.630;8.886;2023-12-22T06:28:43;13.00;49.70
34406;DHT22;20658;45.630;8.886;2023-12-22T06:31:19;12.70;51.70
34406;DHT22;20658;45.630;8.886;2023-12-22T06:33:53;12.40;49.40
34406;DHT22;20658;45.630;8.886;2023-12-22T06:36:26;13.00;46.60
34406;DHT22;20658;45.630;8.886;2023-12-22T06:39:00;13.10;45.00
34406;DHT22;20658;45.630;8.886;2023-12-22T06:41:33;13.30;43.10
34406;DHT22;20658;45.630;8.886;2023-12-22T06:44:08;13.40;42.40
34406;DHT22;20658;45.630;8.886;2023-12-22T06:46:42;13.80;41.10
34406;DHT22;20658;45.630;8.886;2023-12-22T06:49:15;13.80;41.10
34406;DHT22;20658;45.630;8.886;2023-12-22T06:51:49;14.20;39.80
34406;DHT22;20658;45.630;8.886;2023-12-22T06:54:22;14.40;39.50
34406;DHT22;20658;45.630;8.886;2023-12-22T06:56:55;14.00;40.50
34406;DHT22;20658;45.630;8.886;2023-12-22T06:59:33;13.70;41.30
34406;DHT22;20658;45.630;8.886;2023-12-22T07:02:07;13.80;42.00
34406;DHT22;20658;45.630;8.886;2023-12-22T07:04:40;13.30;43.00
34406;DHT22;20658;45.630;8.886;2023-12-22T07:07:28;13.10;43.30
34406;DHT22;20658;45.630;8.886;2023-12-22T07:10:03;13.10;43.20
34406;DHT22;20658;45.630;8.886;2023-12-22T07:12:32;13.10;44.00
34406;DHT22;20658;45.630;8.886;2023-12-22T07:15:07;12.90;44.80
34406;DHT22;20658;45.630;8.886;2023-12-22T07:17:41;12.80;45.00
34406;DHT22;20658;45.630;8.886;2023-12-22T07:20:14;12.80;45.50
34406;DHT22;20658;45.630;8.886;2023-12-22T07:22:47;12.90;46.20
34406;DHT22;20658;45.630;8.886;2023-12-22T07:25:21;13.10;46.70
34406;DHT22;20658;45.630;8.886;2023-12-22T07:27:55;13.20;46.70
34406;DHT22;20658;45.630;8.886;2023-12-22T07:30:29;13.10;46.70
34406;DHT22;20658;45.630;8.886;2023-12-22T07:33:03;12.90;47.00
34406;DHT22;20658;45.630;8.886;2023-12-22T07:35:37;13.10;47.10
34406;DHT22;20658;45.630;8.886;2023-12-22T07:38:10;13.00;47.50
34406;DHT22;20658;45.630;8.886;2023-12-22T07:40:43;12.90;48.00
34406;DHT22;20658;45.630;8.886;2023-12-22T07:43:17;13.00;48.10
34406;DHT22;20658;45.630;8.886;2023-12-22T07:45:51;13.00;48.20
34406;DHT22;20658;45.630;8.886;2023-12-22T07:48:25;13.00;48.40
34406;DHT22;20658;45.630;8.886;2023-12-22T07:50:58;13.10;48.50
34406;DHT22;20658;45.630;8.886;2023-12-22T07:53:34;13.10;49.10
34406;DHT22;20658;45.630;8.886;2023-12-22T07:56:08;13.00;49.10
34406;DHT22;20658;45.630;8.886;2023-12-22T07:58:37;13.10;49.50
34406;DHT22;20658;45.630;8.886;2023-12-22T08:01:12;13.10;49.40
34406;DHT22;20658;45.630;8.886;2023-12-22T08:03:47;13.10;49.70
34406;DHT22;20658;45.630;8.886;2023-12-22T08:06:20;13.20;49.90
34406;DHT22;20658;45.630;8.886;2023-12-22T08:08:53;13.20;50.20
34406;DHT22;20658;45.630;8.886;2023-12-22T08:11:22;13.20;50.60
34406;DHT22;20658;45.630;8.886;2023-12-22T08:13:57;13.30;51.00
34406;DHT22;20658;45.630;8.886;2023-12-22T08:16:32;13.20;51.10
34406;DHT22;20658;45.630;8.886;2023-12-22T08:19:00;13.20;51.30
34406;DHT22;20658;45.630;8.886;2023-12-22T08:21:29;13.20;51.50
34406;DHT22;20658;45.630;8.886;2023-12-22T08:24:02;13.30;51.70
34406;DHT22;20658;45.630;8.886;2023-12-22T08:26:37;13.30;52.10
34406;DHT22;20658;45.630;8.886;2023-12-22T08:29:10;13.30;52.10
34406;DHT22;20658;45.630;8.886;2023-12-22T08:31:45;13.40;52.30
34406;DHT22;20658;45.630;8.886;2023-12-22T08:34:18;13.40;52.40
34406;DHT22;20658;45.630;8.886;2023-12-22T08:36:51;13.40;52.60
34406;DHT22;20658;45.630;8.886;2023-12-22T08:39:25;13.40;53.10
34406;DHT22;20658;45.630;8.886;2023-12-22T08:41:58;13.40;53.10
34406;DHT22;20658;45.630;8.886;2023-12-22T08:44:31;13.40;53.40
34406;DHT22;20658;45.630;8.886;2023-12-22T08:47:06;13.40;53.30
34406;DHT22;20658;45.630;8.886;2023-12-22T08:49:39;13.40;53.30
34406;DHT22;20658;45.630;8.886;2023-12-22T08:52:13;13.40;53.70
34406;DHT22;20658;45.630;8.886;2023-12-22T08:54:46;13.40;54.00
34406;DHT22;20658;45.630;8.886;2023-12-22T08:57:15;13.40;54.00
34406;DHT22;20658;45.630;8.886;2023-12-22T08:59:47;13.40;54.40
34406;DHT22;20658;45.630;8.886;2023-12-22T09:02:22;13.40;54.00
34406;DHT22;20658;45.630;8.886;2023-12-22T09:04:56;13.50;54.00
34406;DHT22;20658;45.630;8.886;2023-12-22T09:07:29;13.60;54.30
34406;DHT22;20658;45.630;8.886;2023-12-22T09:10:03;13.80;54.80
34406;DHT22;20658;45.630;8.886;2023-12-22T09:12:36;13.40;54.60
34406;DHT22;20658;45.630;8.886;2023-12-22T09:15:10;13.50;55.00
34406;DHT22;20658;45.630;8.886;2023-12-22T09:17:40;13.50;55.00
34406;DHT22;20658;45.630;8.886;2023-12-22T09:20:14;13.80;55.30
34406;DHT22;20658;45.630;8.886;2023-12-22T09:22:47;13.60;55.40
34406;DHT22;20658;45.630;8.886;2023-12-22T09:25:16;13.60;55.30
34406;DHT22;20658;45.630;8.886;2023-12-22T09:27:46;13.60;55.40
34406;DHT22;20658;45.630;8.886;2023-12-22T09:30:19;13.80;55.40
34406;DHT22;20658;45.630;8.886;2023-12-22T09:32:49;13.80;55.10
34406;DHT22;20658;45.630;8.886;2023-12-22T09:35:23;13.70;55.00
34406;DHT22;20658;45.630;8.886;2023-12-22T09:37:58;13.90;55.40
34406;DHT22;20658;45.630;8.886;2023-12-22T09:40:31;13.90;54.90
34406;DHT22;20658;45.630;8.886;2023-12-22T09:43:07;13.90;55.20
34406;DHT22;20658;45.630;8.886;2023-12-22T09:45:41;13.90;54.90
34406;DHT22;20658;45.630;8.886;2023-12-22T09:48:17;14.00;55.20
34406;DHT22;20658;45.630;8.886;2023-12-22T09:50:53;14.20;55.30
34406;DHT22;20658;45.630;8.886;2023-12-22T09:53:28;14.20;54.60
34406;DHT22;20658;45.630;8.886;2023-12-22T09:56:04;14.20;54.30
34406;DHT22;20658;45.630;8.886;2023-12-22T09:58:33;14.20;54.70
34406;DHT22;20658;45.630;8.886;2023-12-22T10:01:07;14.30;54.90
34406;DHT22;20658;45.630;8.886;2023-12-22T10:03:43;14.40;54.80
34406;DHT22;20658;45.630;8.886;2023-12-22T10:06:18;14.50;54.40
34406;DHT22;20658;45.630;8.886;2023-12-22T10:08:52;14.40;54.20
34406;DHT22;20658;45.630;8.886;2023-12-22T10:11:25;14.40;53.20
34406;DHT22;20658;45.630;8.886;2023-12-22T10:14:02;14.40;53.70
34406;DHT22;20658;45.630;8.886;2023-12-22T10:16:36;14.50;53.20
34406;DHT22;20658;45.630;8.886;2023-12-22T10:19:11;14.60;53.50
34406;DHT22;20658;45.630;8.886;2023-12-22T10:21:44;14.60;52.90
34406;DHT22;20658;45.630;8.886;2023-12-22T10:24:36;14.80;53.40
34406;DHT22;20658;45.630;8.886;2023-12-22T10:27:11;14.80;52.50
34406;DHT22;20658;45.630;8.886;2023-12-22T10:29:44;14.80;52.40
34406;DHT22;20658;45.630;8.886;2023-12-22T10:32:21;14.90;51.50
34406;DHT22;20658;45.630;8.886;2023-12-22T10:34:56;14.90;52.40
34406;DHT22;20658;45.630;8.886;2023-12-22T10:37:30;15.20;52.80
34406;DHT22;20658;45.630;8.886;2023-12-22T10:40:06;15.20;53.10
34406;DHT22;20658;45.630;8.886;2023-12-22T10:42:42;15.30;52.30
34406;DHT22;20658;45.630;8.886;2023-12-22T10:45:18;15.30;52.30
34406;DHT22;20658;45.630;8.886;2023-12-22T10:47:51;15.40;52.60
34406;DHT22;20658;45.630;8.886;2023-12-22T10:50:26;15.40;52.30
34406;DHT22;20658;45.630;8.886;2023-12-22T10:53:01;15.50;52.80
34406;DHT22;20658;45.630;8.886;2023-12-22T10:55:34;15.60;51.90
34406;DHT22;20658;45.630;8.886;2023-12-22T10:58:09;15.70;51.50
34406;DHT22;20658;45.630;8.886;2023-12-22T11:00:45;15.80;51.30
34406;DHT22;20658;45.630;8.886;2023-12-22T11:03:23;15.80;50.80
34406;DHT22;20658;45.630;8.886;2023-12-22T11:06:02;15.80;50.60
34406;DHT22;20658;45.630;8.886;2023-12-22T11:08:38;15.90;50.80
34406;DHT22;20658;45.630;8.886;2023-12-22T11:11:20;15.90;50.90
34406;DHT22;20658;45.630;8.886;2023-12-22T11:14:01;15.90;50.40
34406;DHT22;20658;45.630;8.886;2023-12-22T11:19:24;15.90;50.30
34406;DHT22;20658;45.630;8.886;2023-12-22T11:22:02;15.80;49.00
34406;DHT22;20658;45.630;8.886;2023-12-22T11:24:38;15.80;49.30
34406;DHT22;20658;45.630;8.886;2023-12-22T11:27:12;15.80;49.40
34406;DHT22;20658;45.630;8.886;2023-12-22T11:29:47;15.90;49.80
34406;DHT22;20658;45.630;8.886;2023-12-22T11:32:22;15.80;47.90
34406;DHT22;20658;45.630;8.886;2023-12-22T11:34:56;16.00;48.00
34406;DHT22;20658;45.630;8.886;2023-12-22T11:37:31;16.00;48.00
34406;DHT22;20658;45.630;8.886;2023-12-22T11:40:06;16.10;48.10
34406;DHT22;20658;45.630;8.886;2023-12-22T11:42:45;16.10;47.20
34406;DHT22;20658;45.630;8.886;2023-12-22T11:45:21;16.20;45.90
34406;DHT22;20658;45.630;8.886;2023-12-22T11:47:56;16.20;47.20
34406;DHT22;20658;45.630;8.886;2023-12-22T11:50:30;16.20;46.00
34406;DHT22;20658;45.630;8.886;2023-12-22T11:53:20;16.30;46.40
34406;DHT22;20658;45.630;8.886;2023-12-22T11:56:03;16.20;45.90
34406;DHT22;20658;45.630;8.886;2023-12-22T11:58:40;16.30;45.50
34406;DHT22;20658;45.630;8.886;2023-12-22T12:01:14;16.40;45.80
34406;DHT22;20658;45.630;8.886;2023-12-22T12:03:49;16.30;45.20
34406;DHT22;20658;45.630;8.886;2023-12-22T12:06:31;16.30;44.90
34406;DHT22;20658;45.630;8.886;2023-12-22T12:09:11;16.30;45.60
34406;DHT22;20658;45.630;8.886;2023-12-22T12:12:16;16.40;45.90
34406;DHT22;20658;45.630;8.886;2023-12-22T12:14:52;16.60;44.80
34406;DHT22;20658;45.630;8.886;2023-12-22T12:17:30;16.60;44.50
34406;DHT22;20658;45.630;8.886;2023-12-22T12:20:05;16.60;44.60
34406;DHT22;20658;45.630;8.886;2023-12-22T12:22:43;16.50;43.60
34406;DHT22;20658;45.630;8.886;2023-12-22T12:25:18;16.60;43.70
34406;DHT22;20658;45.630;8.886;2023-12-22T12:28:03;16.60;43.40
34406;DHT22;20658;45.630;8.886;2023-12-22T12:30:38;16.50;43.00
34406;DHT22;20658;45.630;8.886;2023-12-22T12:33:14;16.90;42.30
34406;DHT22;20658;45.630;8.886;2023-12-22T12:35:48;16.60;42.30
34406;DHT22;20658;45.630;8.886;2023-12-22T12:38:36;16.70;42.60
34406;DHT22;20658;45.630;8.886;2023-12-22T12:41:11;16.90;42.70
34406;DHT22;20658;45.630;8.886;2023-12-22T12:43:45;16.70;42.50
34406;DHT22;20658;45.630;8.886;2023-12-22T12:46:19;16.70;42.50
34406;DHT22;20658;45.630;8.886;2023-12-22T12:49:02;16.70;42.30
34406;DHT22;20658;45.630;8.886;2023-12-22T12:51:37;16.70;42.20
34406;DHT22;20658;45.630;8.886;2023-12-22T12:54:11;16.60;41.90
34406;DHT22;20658;45.630;8.886;2023-12-22T12:56:47;16.70;42.10
34406;DHT22;20658;45.630;8.886;2023-12-22T12:59:21;16.70;42.10
34406;DHT22;20658;45.630;8.886;2023-12-22T13:01:54;16.70;41.60
34406;DHT22;20658;45.630;8.886;2023-12-22T13:04:36;16.70;41.80
34406;DHT22;20658;45.630;8.886;2023-12-22T13:07:10;17.10;42.00
34406;DHT22;20658;45.630;8.886;2023-12-22T13:09:45;16.70;41.80
34406;DHT22;20658;45.630;8.886;2023-12-22T13:12:20;16.70;41.90
34406;DHT22;20658;45.630;8.886;2023-12-22T13:14:53;16.70;41.80
34406;DHT22;20658;45.630;8.886;2023-12-22T13:17:27;16.80;42.40
34406;DHT22;20658;45.630;8.886;2023-12-22T13:19:56;16.70;41.60
34406;DHT22;20658;45.630;8.886;2023-12-22T13:22:29;16.80;41.90
34406;DHT22;20658;45.630;8.886;2023-12-22T13:25:03;16.80;41.60
34406;DHT22;20658;45.630;8.886;2023-12-22T13:27:46;16.80;41.40
34406;DHT22;20658;45.630;8.886;2023-12-22T13:30:32;17.00;41.40
34406;DHT22;20658;45.630;8.886;2023-12-22T13:33:06;16.80;40.70
34406;DHT22;20658;45.630;8.886;2023-12-22T13:35:39;16.80;41.20
34406;DHT22;20658;45.630;8.886;2023-12-22T13:38:13;16.80;41.00
34406;DHT22;20658;45.630;8.886;2023-12-22T13:40:47;16.80;41.00
34406;DHT22;20658;45.630;8.886;2023-12-22T13:43:21;16.80;41.30
34406;DHT22;20658;45.630;8.886;2023-12-22T13:45:55;16.90;40.90
34406;DHT22;20658;45.630;8.886;2023-12-22T13:48:29;16.90;41.70
34406;DHT22;20658;45.630;8.886;2023-12-22T13:51:02;16.90;41.70
34406;DHT22;20658;45.630;8.886;2023-12-22T13:53:31;16.90;41.20
34406;DHT22;20658;45.630;8.886;2023-12-22T13:56:05;16.80;41.10
34406;DHT22;20658;45.630;8.886;2023-12-22T13:58:45;16.80;40.60
34406;DHT22;20658;45.630;8.886;2023-12-22T14:01:19;16.80;40.90
34406;DHT22;20658;45.630;8.886;2023-12-22T14:03:52;16.80;41.00
34406;DHT22;20658;45.630;8.886;2023-12-22T14:06:25;17.00;40.50
34406;DHT22;20658;45.630;8.886;2023-12-22T14:08:59;16.80;40.80
34406;DHT22;20658;45.630;8.886;2023-12-22T14:11:32;16.80;41.10
34406;DHT22;20658;45.630;8.886;2023-12-22T14:14:07;17.10;40.40
34406;DHT22;20658;45.630;8.886;2023-12-22T14:16:41;16.80;41.40
34406;DHT22;20658;45.630;8.886;2023-12-22T14:19:14;16.70;41.20
34406;DHT22;20658;45.630;8.886;2023-12-22T14:21:47;16.70;41.60
34406;DHT22;20658;45.630;8.886;2023-12-22T14:24:20;16.60;42.10
34406;DHT22;20658;45.630;8.886;2023-12-22T14:26:54;16.60;41.70
34406;DHT22;20658;45.630;8.886;2023-12-22T14:29:30;16.50;40.90
34406;DHT22;20658;45.630;8.886;2023-12-22T14:32:04;16.50;41.20
34406;DHT22;20658;45.630;8.886;2023-12-22T14:34:40;16.40;41.60
34406;DHT22;20658;45.630;8.886;2023-12-22T14:37:13;16.80;41.80
34406;DHT22;20658;45.630;8.886;2023-12-22T14:39:48;16.40;40.70
34406;DHT22;20658;45.630;8.886;2023-12-22T14:42:21;16.30;41.70
34406;DHT22;20658;45.630;8.886;2023-12-22T14:44:56;16.30;42.90
34406;DHT22;20658;45.630;8.886;2023-12-22T14:47:29;16.20;43.10
34406;DHT22;20658;45.630;8.886;2023-12-22T14:50:04;16.10;43.40
34406;DHT22;20658;45.630;8.886;2023-12-22T14:52:38;16.00;43.00
34406;DHT22;20658;45.630;8.886;2023-12-22T14:55:11;15.90;43.70
34406;DHT22;20658;45.630;8.886;2023-12-22T14:57:45;15.80;43.40
34406;DHT22;20658;45.630;8.886;2023-12-22T15:00:19;15.70;43.00
34406;DHT22;20658;45.630;8.886;2023-12-22T15:02:53;15.60;43.50
34406;DHT22;20658;45.630;8.886;2023-12-22T15:05:27;15.50;44.00
34406;DHT22;20658;45.630;8.886;2023-12-22T15:08:01;15.40;44.30
34406;DHT22;20658;45.630;8.886;2023-12-22T15:10:35;15.30;44.80
34406;DHT22;20658;45.630;8.886;2023-12-22T15:13:08;15.20;44.90
34406;DHT22;20658;45.630;8.886;2023-12-22T15:15:43;15.00;45.20
34406;DHT22;20658;45.630;8.886;2023-12-22T15:18:16;15.00;45.40
34406;DHT22;20658;45.630;8.886;2023-12-22T15:20:50;14.90;45.70
34406;DHT22;20658;45.630;8.886;2023-12-22T15:23:24;14.80;46.00
34406;DHT22;20658;45.630;8.886;2023-12-22T15:25:53;14.70;46.50
34406;DHT22;20658;45.630;8.886;2023-12-22T15:28:26;14.60;46.60
34406;DHT22;20658;45.630;8.886;2023-12-22T15:31:01;14.50;47.00
34406;DHT22;20658;45.630;8.886;2023-12-22T15:33:34;14.40;47.30
34406;DHT22;20658;45.630;8.886;2023-12-22T15:36:08;14.80;47.80
34406;DHT22;20658;45.630;8.886;2023-12-22T15:38:41;14.10;48.10
34406;DHT22;20658;45.630;8.886;2023-12-22T15:41:09;14.10;48.50
34406;DHT22;20658;45.630;8.886;2023-12-22T15:43:43;14.00;48.70
34406;DHT22;20658;45.630;8.886;2023-12-22T15:46:17;13.90;49.20
34406;DHT22;20658;45.630;8.886;2023-12-22T15:48:46;13.70;49.50
34406;DHT22;20658;45.630;8.886;2023-12-22T15:51:20;13.60;49.40
34406;DHT22;20658;45.630;8.886;2023-12-22T15:53:53;13.50;49.60
34406;DHT22;20658;45.630;8.886;2023-12-22T15:56:22;13.50;49.70
34406;DHT22;20658;45.630;8.886;2023-12-22T15:58:55;13.40;49.60
34406;DHT22;20658;45.630;8.886;2023-12-22T16:01:25;13.40;49.40
34406;DHT22;20658;45.630;8.886;2023-12-22T16:03:58;13.30;50.50
34406;DHT22;20658;45.630;8.886;2023-12-22T16:06:27;13.40;49.40
34406;DHT22;20658;45.630;8.886;2023-12-22T16:08:55;13.40;50.20
34406;DHT22;20658;45.630;8.886;2023-12-22T16:11:28;13.20;50.90
34406;DHT22;20658;45.630;8.886;2023-12-22T16:14:02;13.30;51.30
34406;DHT22;20658;45.630;8.886;2023-12-22T16:16:37;13.10;51.20